Helena, California
Current Conditions -  °F | °C
As of 2:35 AM on Thursday 27 Nov 2014 (Local Time) from KO54 Reporting Station
NA  
Wind Chill: 41°   Ceiling: NA
Heat Index: 41°   Visibility: 0.5mi
Dew Point: 39°   Wind: 0mph
Humidity: 93%   Direction: NA
Pressure: 30.23"   Gusts: NA
Location:  40.882°N, 123.084°W
Report Text: KO54 271035Z AUTO 00000KT 1/2SM 05/04 A3023 RMK AO1
Loading
Personal Weather Stations






























Interactive Weather Map New forecast layout! Learn more

10-Day Weather Forecast

Advertisements
Track Severe Weather on mobile